sensor_id;sensor_type;location;lat;lon;timestamp;temperature;humidity
18721;DHT22;9489;50.948;3.114;2023-11-18T00:00:31;7.20;99.90
18721;DHT22;9489;50.948;3.114;2023-11-18T00:02:58;7.30;99.90
18721;DHT22;9489;50.948;3.114;2023-11-18T00:05:24;7.20;99.90
18721;DHT22;9489;50.948;3.114;2023-11-18T00:07:50;7.30;99.90
18721;DHT22;9489;50.948;3.114;2023-11-18T00:10:16;7.20;99.90
18721;DHT22;9489;50.948;3.114;2023-11-18T00:12:42;7.30;99.90
18721;DHT22;9489;50.948;3.114;2023-11-18T00:15:09;7.20;99.90
18721;DHT22;9489;50.948;3.114;2023-11-18T00:17:37;7.30;99.90
18721;DHT22;9489;50.948;3.114;2023-11-18T00:20:03;7.30;99.90
18721;DHT22;9489;50.948;3.114;2023-11-18T00:22:34;7.30;99.90
18721;DHT22;9489;50.948;3.114;2023-11-18T00:24:59;7.30;99.90
18721;DHT22;9489;50.948;3.114;2023-11-18T00:27:25;7.30;99.90
18721;DHT22;9489;50.948;3.114;2023-11-18T00:29:51;7.30;99.90
18721;DHT22;9489;50.948;3.114;2023-11-18T00:32:18;7.30;99.90
18721;DHT22;9489;50.948;3.114;2023-11-18T00:34:44;7.30;99.90
18721;DHT22;9489;50.948;3.114;2023-11-18T00:37:10;7.40;99.90
18721;DHT22;9489;50.948;3.114;2023-11-18T00:39:35;7.40;99.90
18721;DHT22;9489;50.948;3.114;2023-11-18T00:42:02;7.40;99.90
18721;DHT22;9489;50.948;3.114;2023-11-18T00:44:28;7.40;99.90
18721;DHT22;9489;50.948;3.114;2023-11-18T00:46:54;7.40;99.90
18721;DHT22;9489;50.948;3.114;2023-11-18T00:49:19;7.50;99.90
18721;DHT22;9489;50.948;3.114;2023-11-18T00:51:45;7.50;99.90
18721;DHT22;9489;50.948;3.114;2023-11-18T00:54:11;7.50;99.90
18721;DHT22;9489;50.948;3.114;2023-11-18T00:56:37;7.60;99.90
18721;DHT22;9489;50.948;3.114;2023-11-18T00:59:04;7.50;99.90
18721;DHT22;9489;50.948;3.114;2023-11-18T01:01:31;7.50;99.90
18721;DHT22;9489;50.948;3.114;2023-11-18T01:03:57;7.50;99.90
18721;DHT22;9489;50.948;3.114;2023-11-18T01:06:27;7.50;99.90
18721;DHT22;9489;50.948;3.114;2023-11-18T01:08:53;7.50;99.90
18721;DHT22;9489;50.948;3.114;2023-11-18T01:11:19;7.50;99.90
18721;DHT22;9489;50.948;3.114;2023-11-18T01:13:48;7.50;99.90
18721;DHT22;9489;50.948;3.114;2023-11-18T01:16:14;7.50;99.90
18721;DHT22;9489;50.948;3.114;2023-11-18T01:18:41;7.50;99.90
18721;DHT22;9489;50.948;3.114;2023-11-18T01:21:06;7.50;99.90
18721;DHT22;9489;50.948;3.114;2023-11-18T01:23:35;7.50;99.90
18721;DHT22;9489;50.948;3.114;2023-11-18T01:26:01;7.50;99.90
18721;DHT22;9489;50.948;3.114;2023-11-18T01:28:33;7.60;99.90
18721;DHT22;9489;50.948;3.114;2023-11-18T01:31:05;7.60;99.90
18721;DHT22;9489;50.948;3.114;2023-11-18T01:33:35;7.50;99.90
18721;DHT22;9489;50.948;3.114;2023-11-18T01:36:04;7.50;99.90
18721;DHT22;9489;50.948;3.114;2023-11-18T01:38:29;7.50;99.90
18721;DHT22;9489;50.948;3.114;2023-11-18T01:40:56;7.50;99.90
18721;DHT22;9489;50.948;3.114;2023-11-18T01:43:22;7.60;99.90
18721;DHT22;9489;50.948;3.114;2023-11-18T01:45:48;7.60;99.90
18721;DHT22;9489;50.948;3.114;2023-11-18T01:48:14;7.50;99.90
18721;DHT22;9489;50.948;3.114;2023-11-18T01:50:42;7.60;99.90
18721;DHT22;9489;50.948;3.114;2023-11-18T01:53:09;7.60;99.90
18721;DHT22;9489;50.948;3.114;2023-11-18T01:55:36;7.60;99.90
18721;DHT22;9489;50.948;3.114;2023-11-18T01:58:02;7.60;99.90
18721;DHT22;9489;50.948;3.114;2023-11-18T02:00:39;7.60;99.90
18721;DHT22;9489;50.948;3.114;2023-11-18T02:03:07;7.60;99.90
18721;DHT22;9489;50.948;3.114;2023-11-18T02:05:33;7.60;99.90
18721;DHT22;9489;50.948;3.114;2023-11-18T02:08:00;7.60;99.90
18721;DHT22;9489;50.948;3.114;2023-11-18T02:10:26;7.60;99.90
18721;DHT22;9489;50.948;3.114;2023-11-18T02:13:09;7.70;99.90
18721;DHT22;9489;50.948;3.114;2023-11-18T02:15:40;7.70;99.90
18721;DHT22;9489;50.948;3.114;2023-11-18T02:18:06;7.70;99.90
18721;DHT22;9489;50.948;3.114;2023-11-18T02:20:36;7.70;99.90
18721;DHT22;9489;50.948;3.114;2023-11-18T02:23:03;7.70;99.90
18721;DHT22;9489;50.948;3.114;2023-11-18T02:25:29;7.70;99.90
18721;DHT22;9489;50.948;3.114;2023-11-18T02:27:58;7.80;99.90
18721;DHT22;9489;50.948;3.114;2023-11-18T02:30:24;7.70;99.90
18721;DHT22;9489;50.948;3.114;2023-11-18T02:35:29;7.70;99.90
18721;DHT22;9489;50.948;3.114;2023-11-18T02:37:55;7.80;99.90
18721;DHT22;9489;50.948;3.114;2023-11-18T02:40:35;7.80;99.90
18721;DHT22;9489;50.948;3.114;2023-11-18T02:43:02;7.80;99.90
18721;DHT22;9489;50.948;3.114;2023-11-18T02:45:31;7.80;99.90
18721;DHT22;9489;50.948;3.114;2023-11-18T02:47:57;7.80;99.90
18721;DHT22;9489;50.948;3.114;2023-11-18T02:50:26;7.90;99.90
18721;DHT22;9489;50.948;3.114;2023-11-18T02:52:53;7.90;99.90
18721;DHT22;9489;50.948;3.114;2023-11-18T02:55:19;7.90;99.90
18721;DHT22;9489;50.948;3.114;2023-11-18T02:57:48;7.90;99.90
18721;DHT22;9489;50.948;3.114;2023-11-18T03:00:15;7.90;99.90
18721;DHT22;9489;50.948;3.114;2023-11-18T03:02:47;7.90;99.90
18721;DHT22;9489;50.948;3.114;2023-11-18T03:05:14;7.90;99.90
18721;DHT22;9489;50.948;3.114;2023-11-18T03:07:58;7.90;99.90
18721;DHT22;9489;50.948;3.114;2023-11-18T03:10:24;8.00;99.90
18721;DHT22;9489;50.948;3.114;2023-11-18T03:12:51;7.90;99.90
18721;DHT22;9489;50.948;3.114;2023-11-18T03:15:18;8.00;99.90
18721;DHT22;9489;50.948;3.114;2023-11-18T03:17:48;8.00;99.90
18721;DHT22;9489;50.948;3.114;2023-11-18T03:20:15;8.00;99.90
18721;DHT22;9489;50.948;3.114;2023-11-18T03:22:43;7.90;99.90
18721;DHT22;9489;50.948;3.114;2023-11-18T03:25:09;8.00;99.90
18721;DHT22;9489;50.948;3.114;2023-11-18T03:27:35;8.00;99.90
18721;DHT22;9489;50.948;3.114;2023-11-18T03:30:01;8.00;99.90
18721;DHT22;9489;50.948;3.114;2023-11-18T03:32:26;8.00;99.90
18721;DHT22;9489;50.948;3.114;2023-11-18T03:34:52;7.90;99.90
18721;DHT22;9489;50.948;3.114;2023-11-18T03:37:17;8.00;99.90
18721;DHT22;9489;50.948;3.114;2023-11-18T03:39:45;7.90;99.90
18721;DHT22;9489;50.948;3.114;2023-11-18T03:42:10;8.00;99.90
18721;DHT22;9489;50.948;3.114;2023-11-18T03:44:36;7.90;99.90
18721;DHT22;9489;50.948;3.114;2023-11-18T03:47:03;8.00;99.90
18721;DHT22;9489;50.948;3.114;2023-11-18T03:49:28;8.00;99.90
18721;DHT22;9489;50.948;3.114;2023-11-18T03:51:54;8.00;99.90
18721;DHT22;9489;50.948;3.114;2023-11-18T03:54:20;8.00;99.90
18721;DHT22;9489;50.948;3.114;2023-11-18T03:56:45;8.00;99.90
18721;DHT22;9489;50.948;3.114;2023-11-18T03:59:11;8.00;99.90
18721;DHT22;9489;50.948;3.114;2023-11-18T04:01:37;8.00;99.90
18721;DHT22;9489;50.948;3.114;2023-11-18T04:04:02;8.00;99.90
18721;DHT22;9489;50.948;3.114;2023-11-18T04:06:29;8.00;99.90
18721;DHT22;9489;50.948;3.114;2023-11-18T04:08:55;8.00;99.90
18721;DHT22;9489;50.948;3.114;2023-11-18T04:11:20;8.00;99.90
18721;DHT22;9489;50.948;3.114;2023-11-18T04:13:46;7.90;99.90
18721;DHT22;9489;50.948;3.114;2023-11-18T04:16:13;7.90;99.90
18721;DHT22;9489;50.948;3.114;2023-11-18T04:18:43;7.90;99.90
18721;DHT22;9489;50.948;3.114;2023-11-18T04:21:10;7.90;99.90
18721;DHT22;9489;50.948;3.114;2023-11-18T04:23:41;7.90;99.90
18721;DHT22;9489;50.948;3.114;2023-11-18T04:26:07;7.90;99.90
18721;DHT22;9489;50.948;3.114;2023-11-18T04:28:37;7.90;99.90
18721;DHT22;9489;50.948;3.114;2023-11-18T04:31:03;7.90;99.90
18721;DHT22;9489;50.948;3.114;2023-11-18T04:33:30;7.90;99.90
18721;DHT22;9489;50.948;3.114;2023-11-18T04:35:56;8.00;99.90
18721;DHT22;9489;50.948;3.114;2023-11-18T04:38:26;8.00;99.90
18721;DHT22;9489;50.948;3.114;2023-11-18T04:40:52;8.00;99.90
18721;DHT22;9489;50.948;3.114;2023-11-18T04:43:19;8.00;99.90
18721;DHT22;9489;50.948;3.114;2023-11-18T04:45:45;8.00;99.90
18721;DHT22;9489;50.948;3.114;2023-11-18T04:48:11;8.00;99.90
18721;DHT22;9489;50.948;3.114;2023-11-18T04:50:39;8.00;99.90
18721;DHT22;9489;50.948;3.114;2023-11-18T04:53:05;8.00;99.90
18721;DHT22;9489;50.948;3.114;2023-11-18T04:55:34;8.00;99.90
18721;DHT22;9489;50.948;3.114;2023-11-18T04:58:00;8.00;99.90
18721;DHT22;9489;50.948;3.114;2023-11-18T05:00:26;8.00;99.90
18721;DHT22;9489;50.948;3.114;2023-11-18T05:02:53;8.00;99.90
18721;DHT22;9489;50.948;3.114;2023-11-18T05:05:19;8.00;99.90
18721;DHT22;9489;50.948;3.114;2023-11-18T05:07:45;8.00;99.90
18721;DHT22;9489;50.948;3.114;2023-11-18T05:10:11;8.00;99.90
18721;DHT22;9489;50.948;3.114;2023-11-18T05:12:37;8.00;99.90
18721;DHT22;9489;50.948;3.114;2023-11-18T05:15:04;8.00;99.90
18721;DHT22;9489;50.948;3.114;2023-11-18T05:17:30;8.00;99.90
18721;DHT22;9489;50.948;3.114;2023-11-18T05:19:56;8.00;99.90
18721;DHT22;9489;50.948;3.114;2023-11-18T05:22:22;8.00;99.90
18721;DHT22;9489;50.948;3.114;2023-11-18T05:24:47;8.00;99.90
18721;DHT22;9489;50.948;3.114;2023-11-18T05:27:14;8.00;99.90
18721;DHT22;9489;50.948;3.114;2023-11-18T05:29:39;8.00;99.90
18721;DHT22;9489;50.948;3.114;2023-11-18T05:32:07;8.00;99.90
18721;DHT22;9489;50.948;3.114;2023-11-18T05:34:33;8.10;99.90
18721;DHT22;9489;50.948;3.114;2023-11-18T05:37:00;8.10;99.90
18721;DHT22;9489;50.948;3.114;2023-11-18T05:39:26;8.10;99.90
18721;DHT22;9489;50.948;3.114;2023-11-18T05:41:59;8.10;99.90
18721;DHT22;9489;50.948;3.114;2023-11-18T05:44:25;8.10;99.90
18721;DHT22;9489;50.948;3.114;2023-11-18T05:46:57;8.10;99.90
18721;DHT22;9489;50.948;3.114;2023-11-18T05:49:23;8.20;99.90
18721;DHT22;9489;50.948;3.114;2023-11-18T05:51:50;8.20;99.90
18721;DHT22;9489;50.948;3.114;2023-11-18T05:54:17;8.20;99.90
18721;DHT22;9489;50.948;3.114;2023-11-18T05:56:43;8.20;99.90
18721;DHT22;9489;50.948;3.114;2023-11-18T05:59:09;8.30;99.90
18721;DHT22;9489;50.948;3.114;2023-11-18T06:01:36;8.30;99.90
18721;DHT22;9489;50.948;3.114;2023-11-18T06:04:05;8.30;99.90
18721;DHT22;9489;50.948;3.114;2023-11-18T06:06:33;8.40;99.90
18721;DHT22;9489;50.948;3.114;2023-11-18T06:08:59;8.40;99.90
18721;DHT22;9489;50.948;3.114;2023-11-18T06:11:30;8.40;99.90
18721;DHT22;9489;50.948;3.114;2023-11-18T06:13:57;8.50;99.90
18721;DHT22;9489;50.948;3.114;2023-11-18T06:16:24;8.50;99.90
18721;DHT22;9489;50.948;3.114;2023-11-18T06:18:54;8.50;99.90
18721;DHT22;9489;50.948;3.114;2023-11-18T06:21:21;8.50;99.90
18721;DHT22;9489;50.948;3.114;2023-11-18T06:23:51;8.50;99.90
18721;DHT22;9489;50.948;3.114;2023-11-18T06:26:17;8.50;99.90
18721;DHT22;9489;50.948;3.114;2023-11-18T06:28:47;8.50;99.90
18721;DHT22;9489;50.948;3.114;2023-11-18T06:31:12;8.50;99.90
18721;DHT22;9489;50.948;3.114;2023-11-18T06:33:43;8.50;99.90
18721;DHT22;9489;50.948;3.114;2023-11-18T06:36:16;8.50;99.90
18721;DHT22;9489;50.948;3.114;2023-11-18T06:38:50;8.60;99.90
18721;DHT22;9489;50.948;3.114;2023-11-18T06:41:17;8.60;99.90
18721;DHT22;9489;50.948;3.114;2023-11-18T06:43:44;8.60;99.90
18721;DHT22;9489;50.948;3.114;2023-11-18T06:46:24;8.50;99.90
18721;DHT22;9489;50.948;3.114;2023-11-18T06:48:52;8.50;99.90
18721;DHT22;9489;50.948;3.114;2023-11-18T06:51:23;8.60;99.90
18721;DHT22;9489;50.948;3.114;2023-11-18T06:53:53;8.50;99.90
18721;DHT22;9489;50.948;3.114;2023-11-18T06:56:25;8.50;99.90
18721;DHT22;9489;50.948;3.114;2023-11-18T06:58:51;8.50;99.90
18721;DHT22;9489;50.948;3.114;2023-11-18T07:01:17;8.50;99.90
18721;DHT22;9489;50.948;3.114;2023-11-18T07:03:47;8.50;99.90
18721;DHT22;9489;50.948;3.114;2023-11-18T07:06:20;8.50;99.90
18721;DHT22;9489;50.948;3.114;2023-11-18T07:08:48;8.50;99.90
18721;DHT22;9489;50.948;3.114;2023-11-18T07:11:15;8.50;99.90
18721;DHT22;9489;50.948;3.114;2023-11-18T07:13:41;8.50;99.90
18721;DHT22;9489;50.948;3.114;2023-11-18T07:16:07;8.50;99.90
18721;DHT22;9489;50.948;3.114;2023-11-18T07:18:38;8.50;99.90
18721;DHT22;9489;50.948;3.114;2023-11-18T07:21:04;8.50;99.90
18721;DHT22;9489;50.948;3.114;2023-11-18T07:23:31;8.50;99.90
18721;DHT22;9489;50.948;3.114;2023-11-18T07:25:57;8.50;99.90
18721;DHT22;9489;50.948;3.114;2023-11-18T07:28:24;8.50;99.90
18721;DHT22;9489;50.948;3.114;2023-11-18T07:30:49;8.50;99.90
18721;DHT22;9489;50.948;3.114;2023-11-18T07:33:16;8.60;99.90
18721;DHT22;9489;50.948;3.114;2023-11-18T07:35:42;8.50;99.90
18721;DHT22;9489;50.948;3.114;2023-11-18T07:38:08;8.60;99.90
18721;DHT22;9489;50.948;3.114;2023-11-18T07:40:36;8.60;99.90
18721;DHT22;9489;50.948;3.114;2023-11-18T07:43:03;8.60;99.90
18721;DHT22;9489;50.948;3.114;2023-11-18T07:45:35;8.60;99.90
18721;DHT22;9489;50.948;3.114;2023-11-18T07:48:08;8.60;99.90
18721;DHT22;9489;50.948;3.114;2023-11-18T07:50:35;8.60;99.90
18721;DHT22;9489;50.948;3.114;2023-11-18T07:53:01;8.60;99.90
18721;DHT22;9489;50.948;3.114;2023-11-18T07:55:27;8.60;99.90
18721;DHT22;9489;50.948;3.114;2023-11-18T07:57:54;8.60;99.90
18721;DHT22;9489;50.948;3.114;2023-11-18T08:00:20;8.70;99.90
18721;DHT22;9489;50.948;3.114;2023-11-18T08:02:46;8.70;99.90
18721;DHT22;9489;50.948;3.114;2023-11-18T08:05:11;8.70;99.90
18721;DHT22;9489;50.948;3.114;2023-11-18T08:07:41;8.70;99.90
18721;DHT22;9489;50.948;3.114;2023-11-18T08:10:07;8.70;99.90
18721;DHT22;9489;50.948;3.114;2023-11-18T08:12:38;8.70;99.90
18721;DHT22;9489;50.948;3.114;2023-11-18T08:15:05;8.70;99.90
18721;DHT22;9489;50.948;3.114;2023-11-18T08:17:32;8.70;99.90
18721;DHT22;9489;50.948;3.114;2023-11-18T08:19:59;8.80;99.90
18721;DHT22;9489;50.948;3.114;2023-11-18T08:22:25;8.80;99.90
18721;DHT22;9489;50.948;3.114;2023-11-18T08:24:50;8.80;99.90
18721;DHT22;9489;50.948;3.114;2023-11-18T08:27:16;8.80;99.90
18721;DHT22;9489;50.948;3.114;2023-11-18T08:29:42;8.80;99.90
18721;DHT22;9489;50.948;3.114;2023-11-18T08:32:08;8.80;99.90
18721;DHT22;9489;50.948;3.114;2023-11-18T08:34:36;8.80;99.90
18721;DHT22;9489;50.948;3.114;2023-11-18T08:37:06;8.90;99.90
18721;DHT22;9489;50.948;3.114;2023-11-18T08:39:31;8.90;99.90
18721;DHT22;9489;50.948;3.114;2023-11-18T08:41:57;8.90;99.90
18721;DHT22;9489;50.948;3.114;2023-11-18T08:44:23;8.90;99.90
18721;DHT22;9489;50.948;3.114;2023-11-18T08:46:52;8.90;99.90
18721;DHT22;9489;50.948;3.114;2023-11-18T08:49:18;8.90;99.90
18721;DHT22;9489;50.948;3.114;2023-11-18T08:51:50;8.90;99.90
18721;DHT22;9489;50.948;3.114;2023-11-18T08:54:24;8.90;99.90
18721;DHT22;9489;50.948;3.114;2023-11-18T08:56:51;9.00;99.90
18721;DHT22;9489;50.948;3.114;2023-11-18T08:59:18;8.90;99.90
18721;DHT22;9489;50.948;3.114;2023-11-18T09:01:56;9.00;99.90
18721;DHT22;9489;50.948;3.114;2023-11-18T09:04:23;9.00;99.90
18721;DHT22;9489;50.948;3.114;2023-11-18T09:06:49;8.90;99.90
18721;DHT22;9489;50.948;3.114;2023-11-18T09:09:17;8.90;99.90
18721;DHT22;9489;50.948;3.114;2023-11-18T09:11:43;8.90;99.90
18721;DHT22;9489;50.948;3.114;2023-11-18T09:14:09;8.90;99.90
18721;DHT22;9489;50.948;3.114;2023-11-18T09:16:36;8.90;99.90
18721;DHT22;9489;50.948;3.114;2023-11-18T09:19:05;8.90;99.90
18721;DHT22;9489;50.948;3.114;2023-11-18T09:21:32;8.90;99.90
18721;DHT22;9489;50.948;3.114;2023-11-18T09:24:01;8.90;99.90
18721;DHT22;9489;50.948;3.114;2023-11-18T09:26:37;8.90;99.90
18721;DHT22;9489;50.948;3.114;2023-11-18T09:29:03;8.90;99.90
18721;DHT22;9489;50.948;3.114;2023-11-18T09:31:29;8.90;99.90
18721;DHT22;9489;50.948;3.114;2023-11-18T09:33:56;8.90;99.90
18721;DHT22;9489;50.948;3.114;2023-11-18T09:36:22;8.90;99.90
18721;DHT22;9489;50.948;3.114;2023-11-18T09:38:48;8.90;99.90
18721;DHT22;9489;50.948;3.114;2023-11-18T09:41:15;8.90;99.90
18721;DHT22;9489;50.948;3.114;2023-11-18T09:43:45;8.90;99.90
18721;DHT22;9489;50.948;3.114;2023-11-18T09:46:13;8.90;99.90
18721;DHT22;9489;50.948;3.114;2023-11-18T09:48:45;9.00;99.90
18721;DHT22;9489;50.948;3.114;2023-11-18T09:51:22;9.00;99.90
18721;DHT22;9489;50.948;3.114;2023-11-18T09:53:53;9.00;99.90
18721;DHT22;9489;50.948;3.114;2023-11-18T09:57:04;9.00;99.90
18721;DHT22;9489;50.948;3.114;2023-11-18T09:59:36;9.00;99.90
18721;DHT22;9489;50.948;3.114;2023-11-18T10:02:09;9.00;99.90
18721;DHT22;9489;50.948;3.114;2023-11-18T10:04:39;9.10;99.90
18721;DHT22;9489;50.948;3.114;2023-11-18T10:07:06;9.10;99.90
18721;DHT22;9489;50.948;3.114;2023-11-18T10:09:36;9.10;99.90
18721;DHT22;9489;50.948;3.114;2023-11-18T10:12:07;9.10;99.90
18721;DHT22;9489;50.948;3.114;2023-11-18T10:14:36;9.10;99.90
18721;DHT22;9489;50.948;3.114;2023-11-18T10:17:05;9.20;99.90
18721;DHT22;9489;50.948;3.114;2023-11-18T10:20:09;9.20;99.90
18721;DHT22;9489;50.948;3.114;2023-11-18T10:22:38;9.20;99.90
18721;DHT22;9489;50.948;3.114;2023-11-18T10:25:04;9.20;99.90
18721;DHT22;9489;50.948;3.114;2023-11-18T10:27:31;9.20;99.90
18721;DHT22;9489;50.948;3.114;2023-11-18T10:30:04;9.20;99.90
18721;DHT22;9489;50.948;3.114;2023-11-18T10:32:30;9.30;99.90
18721;DHT22;9489;50.948;3.114;2023-11-18T10:35:01;9.30;99.90
18721;DHT22;9489;50.948;3.114;2023-11-18T10:37:30;9.30;99.90
18721;DHT22;9489;50.948;3.114;2023-11-18T10:39:56;9.30;99.90
18721;DHT22;9489;50.948;3.114;2023-11-18T10:42:25;9.30;99.90
18721;DHT22;9489;50.948;3.114;2023-11-18T10:44:58;9.30;99.90
18721;DHT22;9489;50.948;3.114;2023-11-18T10:47:25;9.30;99.90
18721;DHT22;9489;50.948;3.114;2023-11-18T10:49:52;9.30;99.90
18721;DHT22;9489;50.948;3.114;2023-11-18T10:52:19;9.40;99.90
18721;DHT22;9489;50.948;3.114;2023-11-18T10:54:54;9.40;99.90
18721;DHT22;9489;50.948;3.114;2023-11-18T10:57:21;9.50;99.90
18721;DHT22;9489;50.948;3.114;2023-11-18T11:00:07;9.50;99.90
18721;DHT22;9489;50.948;3.114;2023-11-18T11:02:42;9.50;99.90
18721;DHT22;9489;50.948;3.114;2023-11-18T11:05:11;9.60;99.90
18721;DHT22;9489;50.948;3.114;2023-11-18T11:07:45;9.60;99.90
18721;DHT22;9489;50.948;3.114;2023-11-18T11:10:11;9.60;99.90
18721;DHT22;9489;50.948;3.114;2023-11-18T11:12:50;9.60;99.90
18721;DHT22;9489;50.948;3.114;2023-11-18T11:15:22;9.70;99.90
18721;DHT22;9489;50.948;3.114;2023-11-18T11:17:52;9.70;99.90
18721;DHT22;9489;50.948;3.114;2023-11-18T11:20:25;9.70;99.90
18721;DHT22;9489;50.948;3.114;2023-11-18T11:31:39;9.80;99.90
18721;DHT22;9489;50.948;3.114;2023-11-18T11:34:19;9.80;99.90
18721;DHT22;9489;50.948;3.114;2023-11-18T11:36:49;9.90;99.90
18721;DHT22;9489;50.948;3.114;2023-11-18T11:39:17;9.90;99.90
18721;DHT22;9489;50.948;3.114;2023-11-18T11:41:50;9.90;99.90
18721;DHT22;9489;50.948;3.114;2023-11-18T11:44:17;9.90;99.90
18721;DHT22;9489;50.948;3.114;2023-11-18T11:46:46;9.90;99.90
18721;DHT22;9489;50.948;3.114;2023-11-18T11:49:22;9.90;99.90
18721;DHT22;9489;50.948;3.114;2023-11-18T11:54:29;10.00;99.90
18721;DHT22;9489;50.948;3.114;2023-11-18T11:56:57;10.00;99.90
18721;DHT22;9489;50.948;3.114;2023-11-18T12:02:03;10.00;99.90
18721;DHT22;9489;50.948;3.114;2023-11-18T12:04:34;10.00;99.90
18721;DHT22;9489;50.948;3.114;2023-11-18T12:07:04;10.10;99.90
18721;DHT22;9489;50.948;3.114;2023-11-18T12:09:31;10.10;99.90
18721;DHT22;9489;50.948;3.114;2023-11-18T12:12:04;10.10;99.90
18721;DHT22;9489;50.948;3.114;2023-11-18T12:14:31;10.10;99.90
18721;DHT22;9489;50.948;3.114;2023-11-18T12:17:04;10.10;99.90
18721;DHT22;9489;50.948;3.114;2023-11-18T12:19:38;10.10;99.90
18721;DHT22;9489;50.948;3.114;2023-11-18T12:22:20;10.10;99.90
18721;DHT22;9489;50.948;3.114;2023-11-18T12:27:45;10.10;99.90
18721;DHT22;9489;50.948;3.114;2023-11-18T12:35:30;10.20;99.90
18721;DHT22;9489;50.948;3.114;2023-11-18T12:44:15;10.20;99.90
18721;DHT22;9489;50.948;3.114;2023-11-18T12:46:59;10.20;99.90
18721;DHT22;9489;50.948;3.114;2023-11-18T12:49:44;10.30;99.90
18721;DHT22;9489;50.948;3.114;2023-11-18T12:52:16;10.30;99.90
18721;DHT22;9489;50.948;3.114;2023-11-18T12:54:44;10.30;99.90
18721;DHT22;9489;50.948;3.114;2023-11-18T12:57:16;10.30;99.90
18721;DHT22;9489;50.948;3.114;2023-11-18T12:59:42;10.30;99.90
18721;DHT22;9489;50.948;3.114;2023-11-18T13:02:09;10.40;99.90
18721;DHT22;9489;50.948;3.114;2023-11-18T13:04:41;10.40;99.90
18721;DHT22;9489;50.948;3.114;2023-11-18T13:07:06;10.40;99.90
18721;DHT22;9489;50.948;3.114;2023-11-18T13:09:34;10.40;99.90
18721;DHT22;9489;50.948;3.114;2023-11-18T13:12:03;10.50;99.90
18721;DHT22;9489;50.948;3.114;2023-11-18T13:14:35;10.50;99.90
18721;DHT22;9489;50.948;3.114;2023-11-18T13:17:05;10.50;99.90
18721;DHT22;9489;50.948;3.114;2023-11-18T13:19:34;10.60;99.90
18721;DHT22;9489;50.948;3.114;2023-11-18T13:22:01;10.60;99.90
18721;DHT22;9489;50.948;3.114;2023-11-18T13:24:32;10.60;99.90
18721;DHT22;9489;50.948;3.114;2023-11-18T13:26:58;10.60;99.90
18721;DHT22;9489;50.948;3.114;2023-11-18T13:29:30;10.60;99.90
18721;DHT22;9489;50.948;3.114;2023-11-18T13:31:56;10.60;99.90
18721;DHT22;9489;50.948;3.114;2023-11-18T13:34:23;10.70;99.90
18721;DHT22;9489;50.948;3.114;2023-11-18T13:36:49;10.70;99.90
18721;DHT22;9489;50.948;3.114;2023-11-18T13:39:21;10.70;99.90
18721;DHT22;9489;50.948;3.114;2023-11-18T13:41:50;10.70;99.90
18721;DHT22;9489;50.948;3.114;2023-11-18T13:44:35;10.80;99.90
18721;DHT22;9489;50.948;3.114;2023-11-18T13:47:07;10.80;99.90
18721;DHT22;9489;50.948;3.114;2023-11-18T13:49:38;10.80;99.90
18721;DHT22;9489;50.948;3.114;2023-11-18T13:52:07;10.90;99.90
18721;DHT22;9489;50.948;3.114;2023-11-18T13:54:37;10.90;99.90
18721;DHT22;9489;50.948;3.114;2023-11-18T13:57:04;10.90;99.90
18721;DHT22;9489;50.948;3.114;2023-11-18T13:59:31;11.00;99.90
18721;DHT22;9489;50.948;3.114;2023-11-18T14:01:58;11.00;99.90
18721;DHT22;9489;50.948;3.114;2023-11-18T14:04:32;11.00;99.90
18721;DHT22;9489;50.948;3.114;2023-11-18T14:07:01;11.00;99.90
18721;DHT22;9489;50.948;3.114;2023-11-18T14:09:33;11.00;99.90
18721;DHT22;9489;50.948;3.114;2023-11-18T14:12:03;11.10;99.90
18721;DHT22;9489;50.948;3.114;2023-11-18T14:14:31;11.10;99.90
18721;DHT22;9489;50.948;3.114;2023-11-18T14:16:58;11.20;99.90
18721;DHT22;9489;50.948;3.114;2023-11-18T14:19:27;11.20;99.90
18721;DHT22;9489;50.948;3.114;2023-11-18T14:21:53;11.20;99.90
18721;DHT22;9489;50.948;3.114;2023-11-18T14:24:19;11.20;99.90
18721;DHT22;9489;50.948;3.114;2023-11-18T14:26:45;11.20;99.90
18721;DHT22;9489;50.948;3.114;2023-11-18T14:29:10;11.30;99.90
18721;DHT22;9489;50.948;3.114;2023-11-18T14:31:39;11.30;99.90
18721;DHT22;9489;50.948;3.114;2023-11-18T14:34:05;11.30;99.90
18721;DHT22;9489;50.948;3.114;2023-11-18T14:36:30;11.30;99.90
18721;DHT22;9489;50.948;3.114;2023-11-18T14:38:56;11.40;99.90
18721;DHT22;9489;50.948;3.114;2023-11-18T14:41:25;11.40;99.90
18721;DHT22;9489;50.948;3.114;2023-11-18T14:43:54;11.40;99.90
18721;DHT22;9489;50.948;3.114;2023-11-18T14:46:20;11.40;99.90
18721;DHT22;9489;50.948;3.114;2023-11-18T14:48:46;11.40;99.90
18721;DHT22;9489;50.948;3.114;2023-11-18T14:51:12;11.50;99.90
18721;DHT22;9489;50.948;3.114;2023-11-18T14:53:37;11.50;99.90
18721;DHT22;9489;50.948;3.114;2023-11-18T14:56:04;11.50;99.90
18721;DHT22;9489;50.948;3.114;2023-11-18T14:58:32;11.60;99.90
18721;DHT22;9489;50.948;3.114;2023-11-18T15:01:04;11.50;99.90
18721;DHT22;9489;50.948;3.114;2023-11-18T15:03:33;11.60;99.90
18721;DHT22;9489;50.948;3.114;2023-11-18T15:05:58;11.60;99.90
18721;DHT22;9489;50.948;3.114;2023-11-18T15:08:24;11.60;99.90
18721;DHT22;9489;50.948;3.114;2023-11-18T15:10:49;11.60;99.90
18721;DHT22;9489;50.948;3.114;2023-11-18T15:13:16;11.60;99.90
18721;DHT22;9489;50.948;3.114;2023-11-18T15:15:43;11.60;99.90
18721;DHT22;9489;50.948;3.114;2023-11-18T15:18:10;11.70;99.90
18721;DHT22;9489;50.948;3.114;2023-11-18T15:20:43;11.70;99.90
18721;DHT22;9489;50.948;3.114;2023-11-18T15:23:12;11.70;99.90
18721;DHT22;9489;50.948;3.114;2023-11-18T15:25:39;11.70;99.90
18721;DHT22;9489;50.948;3.114;2023-11-18T15:28:05;11.70;99.90
18721;DHT22;9489;50.948;3.114;2023-11-18T15:30:38;11.70;99.90
18721;DHT22;9489;50.948;3.114;2023-11-18T15:33:08;11.80;99.90
18721;DHT22;9489;50.948;3.114;2023-11-18T15:35:37;11.80;99.90
18721;DHT22;9489;50.948;3.114;2023-11-18T15:38:09;11.80;99.90
18721;DHT22;9489;50.948;3.114;2023-11-18T15:40:42;11.80;99.90
18721;DHT22;9489;50.948;3.114;2023-11-18T15:43:08;11.90;99.90
18721;DHT22;9489;50.948;3.114;2023-11-18T15:45:37;11.90;99.90
18721;DHT22;9489;50.948;3.114;2023-11-18T15:48:03;11.90;99.90
18721;DHT22;9489;50.948;3.114;2023-11-18T15:50:31;11.90;99.90
18721;DHT22;9489;50.948;3.114;2023-11-18T15:52:57;11.90;99.90
18721;DHT22;9489;50.948;3.114;2023-11-18T15:55:23;11.90;99.90
18721;DHT22;9489;50.948;3.114;2023-11-18T15:57:52;12.00;99.90
18721;DHT22;9489;50.948;3.114;2023-11-18T16:00:19;12.00;99.90
18721;DHT22;9489;50.948;3.114;2023-11-18T16:02:59;12.00;99.90
18721;DHT22;9489;50.948;3.114;2023-11-18T16:05:27;12.00;99.90
18721;DHT22;9489;50.948;3.114;2023-11-18T16:07:54;12.10;99.90
18721;DHT22;9489;50.948;3.114;2023-11-18T16:10:20;12.10;99.90
18721;DHT22;9489;50.948;3.114;2023-11-18T16:12:53;12.10;99.90
18721;DHT22;9489;50.948;3.114;2023-11-18T16:15:24;12.10;99.90
18721;DHT22;9489;50.948;3.114;2023-11-18T16:17:51;12.20;99.90
18721;DHT22;9489;50.948;3.114;2023-11-18T16:20:25;12.20;99.90
18721;DHT22;9489;50.948;3.114;2023-11-18T16:22:52;12.20;99.90
18721;DHT22;9489;50.948;3.114;2023-11-18T16:27:52;12.20;99.90
18721;DHT22;9489;50.948;3.114;2023-11-18T16:30:19;12.20;99.90
18721;DHT22;9489;50.948;3.114;2023-11-18T16:32:49;12.20;99.90
18721;DHT22;9489;50.948;3.114;2023-11-18T16:35:15;12.20;99.90
18721;DHT22;9489;50.948;3.114;2023-11-18T16:37:42;12.20;99.90